createdAt,value
2023-06-17T00:03:00.155Z,98005.81
2023-06-17T00:08:03.726Z,97925.00
2023-06-17T00:13:10.115Z,97686.84
2023-06-17T00:18:13.559Z,98023.75
2023-06-17T00:23:17.108Z,97997.66
2023-06-17T00:28:21.957Z,98024.75
2023-06-17T00:33:25.485Z,97958.94
2023-06-17T00:38:28.930Z,98007.19
2023-06-17T00:43:33.837Z,98015.22
2023-06-17T00:48:37.740Z,98029.25
2023-06-17T00:53:41.363Z,97949.31
2023-06-17T00:58:46.752Z,97629.47
2023-06-17T01:09:23.149Z,98019.03
2023-06-17T01:14:29.715Z,97906.59
2023-06-17T01:19:36.523Z,97996.78
2023-06-17T01:24:41.643Z,97970.97
2023-06-17T01:29:48.245Z,97963.44
2023-06-17T01:34:58.051Z,97991.41
2023-06-17T01:40:08.013Z,98006.38
2023-06-17T01:45:13.108Z,98014.22
2023-06-17T01:50:20.896Z,98016.03
2023-06-17T01:55:26.419Z,97990.81
2023-06-17T02:00:31.589Z,98020.28
2023-06-17T02:05:35.430Z,98019.63
2023-06-17T02:10:40.370Z,97905.81
2023-06-17T02:15:44.077Z,98017.16
2023-06-17T02:20:50.620Z,98010.50
2023-06-17T02:25:56.051Z,97986.41
2023-06-17T02:31:02.157Z,97900.72
2023-06-17T02:36:06.725Z,97997.59
2023-06-17T02:41:11.575Z,97988.81
2023-06-17T02:46:15.259Z,97993.25
2023-06-17T02:51:19.255Z,97921.28
2023-06-17T02:56:24.409Z,97990.38
2023-06-17T03:01:29.777Z,97955.84
2023-06-17T03:06:35.222Z,97958.94
2023-06-17T03:11:41.382Z,97995.81
2023-06-17T03:16:45.668Z,97936.94
2023-06-17T03:21:51.250Z,97953.44
2023-06-17T03:26:56.570Z,98002.63
2023-06-17T03:32:00.870Z,98001.38
2023-06-17T03:37:07.755Z,98001.25
2023-06-17T03:42:15.183Z,98003.50
2023-06-17T03:47:18.673Z,98008.72
2023-06-17T03:52:22.305Z,97870.84
2023-06-17T03:57:27.600Z,98017.91
2023-06-17T04:02:31.182Z,98017.56
2023-06-17T04:07:35.298Z,97982.16
2023-06-17T04:12:41.007Z,98016.25
2023-06-17T04:17:44.841Z,97992.75
2023-06-17T04:22:48.440Z,98018.38
2023-06-17T04:27:54.852Z,97998.41
2023-06-17T04:33:01.463Z,98018.88
2023-06-17T04:38:05.962Z,98016.94
2023-06-17T04:43:11.012Z,98013.53
2023-06-17T04:48:15.728Z,98015.50
2023-06-17T04:53:19.666Z,98015.03
2023-06-17T04:58:24.798Z,98010.19
2023-06-17T05:03:34.910Z,98017.22
2023-06-17T05:08:38.910Z,97748.00
2023-06-17T05:13:44.898Z,98017.28
2023-06-17T05:18:48.438Z,98009.25
2023-06-17T05:23:52.170Z,97801.38
2023-06-17T05:28:58.203Z,98015.03
2023-06-17T05:34:03.691Z,98017.34
2023-06-17T05:39:07.774Z,98012.09
2023-06-17T05:44:13.291Z,97969.63
2023-06-17T05:49:17.503Z,98021.72
2023-06-17T05:54:22.101Z,97754.50
2023-06-17T05:59:29.918Z,98022.47
2023-06-17T06:04:34.646Z,98027.78
2023-06-17T06:09:38.178Z,97904.88
2023-06-17T06:14:43.340Z,98028.28
2023-06-17T06:19:46.990Z,98000.78
2023-06-17T06:24:50.745Z,97913.00
2023-06-17T06:29:56.271Z,98026.94
2023-06-17T06:35:00.918Z,98032.28
2023-06-17T06:40:06.484Z,98043.06
2023-06-17T06:45:13.951Z,98038.63
2023-06-17T06:50:17.661Z,98044.22
2023-06-17T06:55:24.648Z,98028.78
2023-06-17T07:00:32.710Z,97930.16
2023-06-17T07:05:36.531Z,98056.66
2023-06-17T07:10:42.234Z,98051.91
2023-06-17T07:15:50.388Z,98043.28
2023-06-17T07:20:56.089Z,98006.69
2023-06-17T07:26:00.041Z,98046.69
2023-06-17T07:31:07.644Z,98046.75
2023-06-17T07:36:11.238Z,98050.31
2023-06-17T07:41:14.822Z,98018.66
2023-06-17T07:46:19.732Z,98013.16
2023-06-17T07:51:23.183Z,98044.03
2023-06-17T07:56:28.648Z,97932.81
2023-06-17T08:01:33.697Z,98022.03
2023-06-17T08:06:38.834Z,98015.69
2023-06-17T08:11:42.260Z,98035.53
2023-06-17T08:16:47.966Z,98027.97
2023-06-17T08:21:51.516Z,97877.03
2023-06-17T08:26:56.078Z,97928.09
2023-06-17T08:32:00.940Z,98026.63
2023-06-17T08:37:05.888Z,98009.75
2023-06-17T08:42:11.071Z,98009.75
2023-06-17T08:47:17.045Z,97983.94
2023-06-17T08:52:20.872Z,98004.88
2023-06-17T08:57:24.749Z,97944.22
2023-06-17T09:02:31.455Z,97961.94
2023-06-17T09:07:35.094Z,97982.06
2023-06-17T09:12:39.940Z,98004.34
2023-06-17T09:17:46.913Z,98007.25
2023-06-17T09:22:51.094Z,97981.34
2023-06-17T09:33:05.813Z,97771.72
2023-06-17T09:38:09.512Z,97937.09
2023-06-17T09:43:26.830Z,97771.88
2023-06-17T09:48:34.446Z,97972.91
2023-06-17T09:53:39.540Z,97971.41
2023-06-17T09:58:44.979Z,97756.00
2023-06-17T10:03:50.416Z,97901.78
2023-06-17T10:08:54.324Z,97959.19
2023-06-17T10:14:03.682Z,97952.66
2023-06-17T10:19:10.822Z,97955.00
2023-06-17T10:24:15.855Z,97759.50
2023-06-17T10:29:22.281Z,97938.09
2023-06-17T10:34:28.129Z,97825.16
2023-06-17T10:39:31.631Z,97945.84
2023-06-17T10:44:44.704Z,97899.03
2023-06-17T10:49:51.148Z,97933.91
2023-06-17T10:54:55.794Z,97879.78
2023-06-17T11:00:03.738Z,97922.06
2023-06-17T11:17:45.823Z,97718.72
2023-06-17T11:23:26.908Z,97557.94
2023-06-17T11:28:44.512Z,97916.69
2023-06-17T11:33:49.219Z,97737.41
2023-06-17T11:38:55.495Z,97801.59
2023-06-17T11:43:59.630Z,97889.16
2023-06-17T11:49:07.568Z,97865.50
2023-06-17T11:54:12.419Z,97887.34
2023-06-17T11:59:15.894Z,97873.03
2023-06-17T12:04:19.991Z,97857.94
2023-06-17T12:09:25.130Z,97834.22
2023-06-17T12:14:28.746Z,97895.31
2023-06-17T12:19:32.429Z,97813.97
2023-06-17T12:24:37.307Z,97856.28
2023-06-17T12:29:41.358Z,97886.78
2023-06-17T12:34:45.474Z,97865.59
2023-06-17T12:39:51.007Z,97870.94
2023-06-17T12:44:54.558Z,97843.78
2023-06-17T12:50:00.309Z,97875.66
2023-06-17T12:55:09.984Z,97749.97
2023-06-17T13:00:17.380Z,97860.19
2023-06-17T13:05:21.450Z,97839.84
2023-06-17T13:10:27.570Z,97774.19
2023-06-17T13:15:31.514Z,97670.59
2023-06-17T13:20:34.994Z,97807.81
2023-06-17T13:25:39.878Z,97839.84
2023-06-17T13:30:44.813Z,97831.88
2023-06-17T13:35:48.357Z,97835.38
2023-06-17T13:40:53.461Z,97839.53
2023-06-17T13:45:57.018Z,97790.75
2023-06-17T13:57:26.062Z,97751.75
2023-06-17T14:02:29.596Z,97782.91
2023-06-17T14:07:33.785Z,97825.22
2023-06-17T14:12:39.902Z,97802.03
2023-06-17T14:17:43.498Z,97810.63
2023-06-17T14:22:47.198Z,97784.69
2023-06-17T14:27:52.872Z,97807.25
2023-06-17T14:32:58.547Z,97737.34
2023-06-17T14:38:02.120Z,97642.94
2023-06-17T14:43:08.212Z,97800.13
2023-06-17T14:48:12.092Z,97717.59
2023-06-17T14:53:32.431Z,97779.81
2023-06-17T14:58:37.191Z,97789.03
2023-06-17T15:03:40.843Z,97729.31
2023-06-17T15:08:44.953Z,97775.38
2023-06-17T15:13:50.264Z,97756.88
2023-06-17T15:18:54.895Z,97582.56
2023-06-17T15:23:58.421Z,97716.72
2023-06-17T15:29:03.470Z,97770.53
2023-06-17T15:34:07.087Z,97772.84
2023-06-17T15:39:18.846Z,97781.19
2023-06-17T15:44:24.155Z,97777.00
2023-06-17T15:49:27.763Z,97699.28
2023-06-17T15:54:31.419Z,97775.88
2023-06-17T15:59:37.352Z,97770.78
2023-06-17T16:04:41.332Z,97770.31
2023-06-17T16:09:48.773Z,97667.97
2023-06-17T16:14:53.845Z,97733.72
2023-06-17T16:19:59.114Z,97680.28
2023-06-17T16:25:02.920Z,97752.69
2023-06-17T16:30:10.810Z,97737.28
2023-06-17T16:35:14.612Z,97762.81
2023-06-17T16:40:18.079Z,97733.69
2023-06-17T16:45:23.068Z,97757.50
2023-06-17T16:50:26.612Z,97769.06
2023-06-17T16:55:30.463Z,97772.06
2023-06-17T17:00:35.494Z,97758.84
2023-06-17T17:05:39.077Z,97683.22
2023-06-17T17:10:42.643Z,97753.56
2023-06-17T17:15:47.573Z,97760.88
2023-06-17T17:20:50.986Z,97775.69
2023-06-17T17:25:54.550Z,97774.47
2023-06-17T17:30:59.494Z,97765.91
2023-06-17T17:36:03.183Z,97731.09
2023-06-17T17:41:06.597Z,97714.16
2023-06-17T17:46:12.514Z,97769.69
2023-06-17T17:51:17.851Z,97782.13
2023-06-17T17:56:21.432Z,97689.09
2023-06-17T18:01:27.052Z,97763.44
2023-06-17T18:06:31.469Z,97782.81
2023-06-17T18:11:34.918Z,97795.25
2023-06-17T18:16:39.770Z,97739.28
2023-06-17T18:21:43.434Z,97790.75
2023-06-17T18:26:46.961Z,97798.78
2023-06-17T18:31:53.859Z,97802.03
2023-06-17T18:36:57.485Z,97792.63
2023-06-17T18:42:01.800Z,97787.97
2023-06-17T18:47:06.983Z,97763.50
2023-06-17T18:52:10.632Z,97813.41
2023-06-17T18:57:14.663Z,97814.56
2023-06-17T19:02:21.316Z,97798.94
2023-06-17T19:07:24.969Z,97759.34
2023-06-17T19:12:31.144Z,97799.97
2023-06-17T19:17:38.512Z,97820.13
2023-06-17T19:22:42.291Z,97826.63
2023-06-17T19:27:45.887Z,97830.22
2023-06-17T19:32:51.565Z,97829.84
2023-06-17T19:37:55.119Z,97835.84
2023-06-17T19:42:58.754Z,97833.75
2023-06-17T19:48:03.823Z,97774.81
2023-06-17T19:53:07.326Z,97751.50
2023-06-17T19:58:10.835Z,97839.72
2023-06-17T20:03:15.856Z,97832.69
2023-06-17T20:08:19.670Z,97795.00
2023-06-17T20:13:23.279Z,97760.72
2023-06-17T20:18:28.208Z,97752.63
2023-06-17T20:23:31.706Z,97719.28
2023-06-17T20:28:35.304Z,97862.72
2023-06-17T20:33:43.685Z,97774.19
2023-06-17T20:38:47.291Z,97791.63
2023-06-17T20:43:51.046Z,97762.03
2023-06-17T20:48:56.744Z,97825.78
2023-06-17T20:54:00.420Z,97780.47
2023-06-17T20:59:04.481Z,97853.63
2023-06-17T21:04:09.428Z,97794.59
2023-06-17T21:09:13.817Z,97774.00
2023-06-17T21:14:17.469Z,97719.94
2023-06-17T21:19:22.652Z,97822.09
2023-06-17T21:24:26.351Z,97859.47
2023-06-17T21:29:30.179Z,97866.41
2023-06-17T21:34:47.233Z,97862.16
2023-06-17T21:39:51.227Z,97748.31
2023-06-17T21:44:54.723Z,97794.03
2023-06-17T21:49:59.662Z,97831.75
2023-06-17T21:55:03.864Z,97857.28
2023-06-17T22:00:09.467Z,97860.06
2023-06-17T22:05:17.581Z,97867.31
2023-06-17T22:10:21.279Z,97803.19
2023-06-17T22:15:25.087Z,97782.56
2023-06-17T22:20:31.081Z,97782.94
2023-06-17T22:25:38.247Z,97844.16
2023-06-17T22:30:43.455Z,97860.44
2023-06-17T22:36:00.688Z,97849.72
2023-06-17T22:41:05.470Z,97710.47
2023-06-17T22:46:14.149Z,97854.97
2023-06-17T22:51:24.533Z,97683.88
2023-06-17T22:56:35.632Z,97857.28
2023-06-17T23:01:39.181Z,97862.28
2023-06-17T23:06:44.085Z,97832.63
2023-06-17T23:11:47.664Z,97767.53
2023-06-17T23:16:51.140Z,97867.97
2023-06-17T23:21:56.213Z,97847.22
2023-06-17T23:26:59.726Z,97770.34
2023-06-17T23:32:03.258Z,97823.03
2023-06-17T23:37:11.616Z,97859.84
2023-06-17T23:42:15.164Z,97854.44
2023-06-17T23:47:19.721Z,97857.16
2023-06-17T23:52:24.661Z,97802.06
2023-06-17T23:57:28.171Z,97841.38
